createdAt,value
2024-02-22T00:03:20.546Z,48.61
2024-02-22T01:42:15.316Z,48.47
2024-02-22T01:47:18.700Z,48.63
2024-02-22T01:52:23.247Z,48.30
2024-02-22T01:57:25.366Z,48.36
2024-02-22T02:02:28.949Z,48.52
2024-02-22T02:07:31.377Z,48.45
2024-02-22T02:12:33.790Z,48.70
2024-02-22T02:17:36.177Z,48.43
2024-02-22T02:22:57.512Z,48.52
2024-02-22T02:27:59.883Z,48.27
2024-02-22T02:33:17.274Z,48.43
2024-02-22T02:38:19.520Z,48.32
2024-02-22T02:43:21.617Z,48.68
2024-02-22T02:48:23.786Z,48.57
2024-02-22T02:53:25.890Z,48.64
2024-02-22T02:58:27.874Z,48.48
2024-02-22T03:39:51.932Z,48.58
2024-02-22T03:44:53.870Z,48.60
2024-02-22T03:49:55.866Z,48.63
2024-02-22T03:54:57.848Z,48.54
2024-02-22T03:59:59.910Z,48.68
2024-02-22T04:05:05.617Z,48.70
2024-02-22T04:10:08.068Z,48.65
2024-02-22T04:15:10.295Z,48.94
2024-02-22T04:20:12.493Z,48.75
2024-02-22T04:25:14.806Z,48.85
2024-02-22T04:30:17.012Z,48.77
2024-02-22T04:35:20.111Z,48.85
2024-02-22T04:40:22.088Z,48.70
2024-02-22T04:45:24.259Z,48.94
2024-02-22T04:50:26.136Z,48.61
2024-02-22T04:55:28.550Z,48.84
2024-02-22T05:00:31.445Z,48.85
2024-02-22T05:05:33.662Z,48.93
2024-02-22T05:10:35.904Z,48.87
2024-02-22T05:15:37.956Z,48.96
2024-02-22T05:20:40.350Z,49.09
2024-02-22T05:25:43.146Z,49.19
2024-02-22T05:30:45.427Z,49.09
2024-02-22T05:35:47.918Z,48.77
2024-02-22T05:40:50.182Z,48.86
2024-02-22T05:45:52.103Z,48.97
2024-02-22T05:50:54.252Z,49.08
2024-02-22T05:55:56.456Z,48.97
2024-02-22T06:00:58.484Z,49.39
2024-02-22T06:06:00.622Z,49.30
2024-02-22T06:11:04.391Z,49.17
2024-02-22T06:16:07.035Z,49.29
2024-02-22T06:21:09.550Z,49.38
2024-02-22T06:26:11.520Z,49.31
2024-02-22T06:31:13.393Z,49.11
2024-02-22T06:36:15.740Z,49.56
2024-02-22T06:41:19.906Z,49.07
2024-02-22T06:46:25.694Z,49.34
2024-02-22T06:51:28.043Z,49.21
2024-02-22T06:56:30.078Z,49.08
2024-02-22T07:01:33.879Z,49.30
2024-02-22T07:06:35.905Z,49.24
2024-02-22T07:11:38.226Z,49.44
2024-02-22T07:16:42.216Z,49.41
2024-02-22T07:21:44.605Z,49.47
2024-02-22T07:26:47.516Z,49.50
2024-02-22T07:31:49.452Z,49.21
2024-02-22T07:36:51.863Z,49.22
2024-02-22T07:41:53.956Z,49.22
2024-02-22T07:46:56.005Z,49.37
2024-02-22T07:51:59.255Z,49.26
2024-02-22T07:57:01.331Z,49.42
2024-02-22T08:02:04.177Z,49.65
2024-02-22T08:07:06.647Z,49.38
2024-02-22T08:12:08.953Z,49.55
2024-02-22T08:17:11.892Z,49.62
2024-02-22T08:22:13.917Z,49.12
2024-02-22T08:27:15.905Z,49.34
2024-02-22T08:32:18.319Z,49.16
2024-02-22T08:37:20.371Z,48.83
2024-02-22T08:42:22.521Z,48.86
2024-02-22T08:47:25.035Z,49.67
2024-02-22T08:52:26.994Z,50.17
2024-02-22T08:57:30.097Z,50.52
2024-02-22T09:02:35.184Z,50.43
2024-02-22T09:07:37.560Z,50.55
2024-02-22T09:12:41.906Z,50.58
2024-02-22T09:17:43.944Z,50.67
2024-02-22T09:22:45.909Z,50.47
2024-02-22T09:27:47.962Z,50.50
2024-02-22T09:32:51.708Z,50.31
2024-02-22T09:37:53.759Z,50.08
2024-02-22T09:42:56.700Z,50.07
2024-02-22T09:48:01.506Z,49.94
2024-02-22T09:53:04.227Z,49.98
2024-02-22T09:58:06.418Z,49.81
2024-02-22T10:03:08.608Z,49.86
2024-02-22T10:08:11.498Z,49.90
2024-02-22T10:13:21.884Z,50.12
2024-02-22T10:18:29.168Z,50.02
2024-02-22T10:23:31.494Z,49.87
2024-02-22T10:28:34.518Z,50.21
2024-02-22T10:33:37.541Z,50.43
2024-02-22T10:38:40.117Z,50.71
2024-02-22T10:43:45.063Z,50.68
2024-02-22T10:48:55.446Z,50.23
2024-02-22T10:53:58.229Z,50.47
2024-02-22T10:59:04.493Z,50.37
2024-02-22T11:04:06.919Z,50.53
2024-02-22T11:09:20.087Z,50.70
2024-02-22T11:14:32.748Z,50.35
2024-02-22T11:19:36.932Z,50.10
2024-02-22T11:24:38.897Z,49.95
2024-02-22T11:29:40.781Z,50.28
2024-02-22T11:34:42.974Z,50.02
2024-02-22T11:39:46.119Z,49.79
2024-02-22T11:44:48.205Z,50.19
2024-02-22T11:49:50.434Z,49.97
2024-02-22T11:54:52.671Z,49.91
2024-02-22T11:59:54.556Z,49.82
2024-02-22T12:04:56.551Z,49.88
2024-02-22T12:09:58.645Z,49.77
2024-02-22T12:15:03.407Z,49.70
2024-02-22T12:20:07.807Z,49.50
2024-02-22T12:25:10.108Z,49.75
2024-02-22T12:30:13.201Z,49.45
2024-02-22T12:35:15.860Z,49.33
2024-02-22T12:40:17.868Z,49.43
2024-02-22T12:45:21.501Z,49.27
2024-02-22T12:50:23.735Z,49.20
2024-02-22T12:55:25.675Z,49.41
2024-02-22T13:00:27.679Z,49.31
2024-02-22T13:05:32.638Z,49.28
2024-02-22T13:10:34.722Z,49.31
2024-02-22T13:15:36.999Z,49.33
2024-02-22T13:20:38.967Z,49.17
2024-02-22T13:25:41.470Z,48.99
2024-02-22T13:30:43.975Z,48.89
2024-02-22T13:35:46.022Z,49.23
2024-02-22T13:40:48.130Z,49.36
2024-02-22T13:45:50.244Z,49.90
2024-02-22T13:50:56.017Z,49.43
2024-02-22T13:55:58.095Z,49.35
2024-02-22T14:01:00.156Z,49.86
2024-02-22T14:06:04.801Z,50.61
2024-02-22T14:11:08.405Z,50.46
2024-02-22T14:16:10.807Z,49.95
2024-02-22T14:21:15.236Z,49.92
2024-02-22T14:26:17.241Z,49.68
2024-02-22T14:31:20.844Z,49.89
2024-02-22T14:36:23.385Z,50.00
2024-02-22T14:41:25.648Z,49.90
2024-02-22T14:46:30.620Z,49.86
2024-02-22T14:51:32.566Z,50.01
2024-02-22T14:56:34.719Z,50.17
2024-02-22T15:01:38.067Z,50.16
2024-02-22T15:06:46.699Z,50.01
2024-02-22T15:11:49.032Z,49.97
2024-02-22T15:16:53.185Z,50.10
2024-02-22T15:21:55.407Z,50.38
2024-02-22T15:27:01.369Z,50.40
2024-02-22T15:32:05.998Z,50.31
2024-02-22T15:37:10.079Z,50.29
2024-02-22T15:42:12.048Z,51.00
2024-02-22T15:47:14.042Z,51.65
2024-02-22T15:52:16.038Z,51.10
2024-02-22T15:57:18.039Z,51.31
2024-02-22T16:02:21.251Z,51.35
2024-02-22T16:07:23.360Z,51.35
2024-02-22T16:12:25.655Z,51.17
2024-02-22T16:17:27.599Z,51.20
2024-02-22T16:22:30.696Z,52.17
2024-02-22T16:27:33.709Z,51.55
2024-02-22T16:32:35.784Z,51.79
2024-02-22T16:37:37.911Z,51.73
2024-02-22T16:42:39.919Z,52.20
2024-02-22T16:47:43.541Z,53.02
2024-02-22T16:52:45.503Z,54.12
2024-02-22T16:57:47.487Z,53.91
2024-02-22T17:02:49.556Z,53.04
2024-02-22T17:07:51.905Z,52.06
2024-02-22T17:12:53.841Z,51.17
2024-02-22T17:17:55.789Z,50.85
2024-02-22T17:22:58.229Z,56.21
2024-02-22T17:28:00.158Z,56.24
2024-02-22T17:33:02.201Z,56.65
2024-02-22T17:38:04.256Z,56.54
2024-02-22T17:43:06.653Z,56.23
2024-02-22T17:48:09.271Z,56.30
2024-02-22T17:53:11.332Z,55.84
2024-02-22T17:58:15.004Z,55.66
2024-02-22T18:03:17.094Z,55.84
2024-02-22T18:08:19.301Z,55.79
2024-02-22T18:13:21.459Z,55.72
2024-02-22T18:18:23.811Z,55.69
2024-02-22T18:23:26.039Z,55.50
2024-02-22T18:28:27.996Z,54.78
2024-02-22T18:33:30.183Z,54.65
2024-02-22T18:38:33.917Z,54.51
2024-02-22T18:43:35.895Z,53.90
2024-02-22T18:48:41.026Z,52.95
2024-02-22T18:53:43.271Z,52.18
2024-02-22T18:58:45.192Z,51.99
2024-02-22T19:03:47.153Z,51.82
2024-02-22T19:08:49.317Z,51.18
2024-02-22T19:13:51.763Z,51.08
2024-02-22T19:18:54.047Z,51.09
2024-02-22T19:23:55.932Z,50.89
2024-02-22T19:28:58.968Z,50.82
2024-02-22T19:34:02.364Z,50.58
2024-02-22T19:39:04.881Z,50.39
2024-02-22T19:44:07.615Z,50.08
2024-02-22T19:49:09.735Z,49.97
2024-02-22T19:54:11.886Z,49.96
2024-02-22T19:59:14.977Z,49.88
2024-02-22T20:04:17.076Z,49.51
2024-02-22T20:09:18.982Z,49.44
2024-02-22T20:14:21.043Z,49.33
2024-02-22T20:19:23.256Z,49.32
2024-02-22T20:24:25.223Z,49.24
2024-02-22T20:29:27.241Z,49.03
2024-02-22T20:34:29.290Z,49.01
2024-02-22T20:39:31.383Z,49.02
2024-02-22T20:44:33.706Z,49.08
2024-02-22T20:49:35.872Z,49.07
2024-02-22T20:54:37.815Z,48.65
2024-02-22T20:59:42.665Z,48.10
2024-02-22T21:04:44.882Z,47.93
2024-02-22T21:09:47.416Z,47.94
2024-02-22T21:14:49.389Z,47.68
2024-02-22T21:19:51.412Z,47.97
2024-02-22T21:24:53.568Z,48.18
2024-02-22T21:29:55.535Z,49.26
2024-02-22T21:34:58.506Z,49.26
2024-02-22T21:40:02.635Z,49.15
2024-02-22T21:45:05.644Z,48.78
2024-02-22T21:50:10.052Z,48.83
2024-02-22T21:55:12.266Z,48.39
2024-02-22T22:00:14.637Z,48.21
2024-02-22T22:05:17.218Z,47.75
2024-02-22T22:10:19.181Z,47.74
2024-02-22T22:15:21.406Z,47.67
2024-02-22T22:20:23.729Z,47.50
2024-02-22T22:25:25.972Z,47.53
2024-02-22T22:30:28.001Z,47.38
2024-02-22T22:35:29.943Z,47.11
2024-02-22T22:40:31.884Z,46.99
2024-02-22T22:45:33.770Z,46.99
2024-02-22T22:50:35.871Z,46.84
2024-02-22T22:55:37.920Z,47.10
2024-02-22T23:00:39.985Z,46.84
2024-02-22T23:05:42.053Z,46.92
2024-02-22T23:10:44.157Z,46.65
2024-02-22T23:15:48.819Z,47.00
2024-02-22T23:20:50.810Z,46.68
2024-02-22T23:25:52.776Z,46.80
2024-02-22T23:30:54.790Z,46.54
2024-02-22T23:35:56.938Z,46.72
2024-02-22T23:41:10.611Z,46.74
2024-02-22T23:46:20.816Z,46.43
2024-02-22T23:51:22.859Z,46.60
2024-02-22T23:56:25.824Z,46.43
